createdAt,value
2023-02-03T00:00:47.485Z,97899.64
2023-02-03T00:03:16.714Z,97897.90
2023-02-03T00:05:43.831Z,97901.42
2023-02-03T00:08:10.623Z,97903.91
2023-02-03T00:10:39.601Z,97903.29
2023-02-03T00:13:06.913Z,97903.96
2023-02-03T00:15:33.870Z,97908.06
2023-02-03T00:18:00.598Z,97907.33
2023-02-03T00:20:27.704Z,97910.55
2023-02-03T00:22:55.203Z,97909.20
2023-02-03T00:25:21.961Z,97910.47
2023-02-03T00:27:49.404Z,97910.84
2023-02-03T00:30:17.266Z,97913.86
2023-02-03T00:32:44.542Z,97913.44
2023-02-03T00:35:11.972Z,97912.78
2023-02-03T00:37:39.125Z,97914.21
2023-02-03T00:40:08.123Z,97917.33
2023-02-03T00:42:35.365Z,97915.91
2023-02-03T00:45:02.229Z,97918.77
2023-02-03T00:47:29.251Z,97920.41
2023-02-03T00:49:57.870Z,97926.70
2023-02-03T00:52:25.088Z,97926.59
2023-02-03T00:54:51.982Z,97928.00
2023-02-03T00:57:19.018Z,97928.84
2023-02-03T00:59:45.727Z,97934.89
2023-02-03T01:02:16.508Z,97933.27
2023-02-03T01:04:43.808Z,97936.54
2023-02-03T01:07:10.985Z,97939.67
2023-02-03T01:09:38.001Z,97942.94
2023-02-03T01:12:05.494Z,97944.09
2023-02-03T01:14:34.262Z,97947.59
2023-02-03T01:17:01.008Z,97950.08
2023-02-03T01:19:27.900Z,97952.96
2023-02-03T01:21:54.785Z,97949.16
2023-02-03T01:24:22.231Z,97946.84
2023-02-03T01:26:50.303Z,97947.27
2023-02-03T01:29:17.359Z,97946.42
2023-02-03T01:31:44.273Z,97943.08
2023-02-03T01:34:12.794Z,97939.47
2023-02-03T01:36:39.558Z,97939.33
2023-02-03T01:39:07.484Z,97940.57
2023-02-03T01:41:37.156Z,97943.05
2023-02-03T01:44:33.420Z,97944.02
2023-02-03T01:47:00.285Z,97952.36
2023-02-03T01:49:33.253Z,97952.53
2023-02-03T01:51:59.986Z,97958.04
2023-02-03T01:54:38.302Z,97958.75
2023-02-03T01:57:27.683Z,97958.69
2023-02-03T01:59:55.352Z,97958.41
2023-02-03T02:02:22.231Z,97958.66
2023-02-03T02:04:55.618Z,97960.70
2023-02-03T02:07:23.246Z,97964.61
2023-02-03T02:09:50.378Z,97966.73
2023-02-03T02:12:17.115Z,97971.23
2023-02-03T02:14:43.859Z,97973.00
2023-02-03T02:17:33.351Z,97973.15
2023-02-03T02:20:44.716Z,97974.80
2023-02-03T02:23:17.787Z,97975.63
2023-02-03T02:25:56.426Z,97976.42
2023-02-03T02:28:43.877Z,97977.52
2023-02-03T02:31:33.104Z,97973.91
2023-02-03T02:34:19.058Z,97977.58
2023-02-03T02:36:46.464Z,97980.29
2023-02-03T02:39:31.937Z,97978.98
2023-02-03T02:42:06.735Z,97982.02
2023-02-03T02:44:40.902Z,97983.73
2023-02-03T02:47:20.973Z,97985.14
2023-02-03T02:50:01.189Z,97988.21
2023-02-03T02:52:30.079Z,97987.96
2023-02-03T02:55:01.968Z,97989.77
2023-02-03T02:57:29.191Z,97990.38
2023-02-03T02:59:56.749Z,97989.24
2023-02-03T03:02:35.005Z,97996.73
2023-02-03T03:05:04.404Z,97998.28
2023-02-03T03:07:33.557Z,98000.27
2023-02-03T03:10:02.375Z,98001.75
2023-02-03T03:12:31.864Z,98003.25
2023-02-03T03:15:11.054Z,98004.85
2023-02-03T03:17:42.102Z,98003.42
2023-02-03T03:20:15.644Z,97998.98
2023-02-03T03:22:53.624Z,98002.29
2023-02-03T03:25:24.109Z,98010.06
2023-02-03T03:27:57.245Z,98012.98
2023-02-03T03:30:26.843Z,98015.03
2023-02-03T03:32:54.208Z,98020.44
2023-02-03T03:35:21.053Z,98020.80
2023-02-03T03:37:58.576Z,98022.88
2023-02-03T03:40:29.783Z,98027.26
2023-02-03T03:43:00.714Z,98025.97
2023-02-03T03:45:58.180Z,98030.38
2023-02-03T03:48:47.280Z,98034.71
2023-02-03T03:51:38.607Z,98036.05
2023-02-03T03:54:07.756Z,98044.42
2023-02-03T03:57:14.945Z,98041.78
2023-02-03T03:59:46.600Z,98044.23
2023-02-03T04:02:13.572Z,98045.77
2023-02-03T04:04:41.105Z,98048.47
2023-02-03T04:07:07.876Z,98051.61
2023-02-03T04:09:36.537Z,98057.02
2023-02-03T04:12:05.817Z,98052.14
2023-02-03T04:14:38.148Z,98052.27
2023-02-03T04:17:08.334Z,98058.26
2023-02-03T04:19:35.161Z,98057.10
2023-02-03T04:22:02.881Z,98059.43
2023-02-03T04:24:29.822Z,98064.52
2023-02-03T04:26:56.571Z,98070.34
2023-02-03T04:29:23.739Z,98075.02
2023-02-03T04:31:50.410Z,98080.14
2023-02-03T04:34:17.544Z,98089.33
2023-02-03T04:36:44.362Z,98090.95
2023-02-03T04:39:11.225Z,98100.42
2023-02-03T04:41:38.027Z,98102.88
2023-02-03T04:44:05.377Z,98106.04
2023-02-03T04:46:32.269Z,98110.94
2023-02-03T04:48:59.015Z,98112.23
2023-02-03T04:51:25.725Z,98114.49
2023-02-03T04:53:53.017Z,98111.30
2023-02-03T04:56:19.845Z,98112.55
2023-02-03T04:58:46.792Z,98115.79
2023-02-03T05:01:13.543Z,98113.38
2023-02-03T05:03:40.511Z,98119.60
2023-02-03T05:06:07.717Z,98117.81
2023-02-03T05:08:36.129Z,98122.21
2023-02-03T05:11:03.575Z,98126.46
2023-02-03T05:21:12.815Z,98150.77
2023-02-03T05:23:40.951Z,98156.71
2023-02-03T05:26:09.697Z,98154.50
2023-02-03T05:28:39.097Z,98157.61
2023-02-03T05:31:07.331Z,98158.21
2023-02-03T05:33:36.664Z,98162.58
2023-02-03T05:36:05.771Z,98165.70
2023-02-03T05:38:34.457Z,98165.17
2023-02-03T05:41:21.373Z,98171.41
2023-02-03T05:44:07.075Z,98179.73
2023-02-03T05:46:35.632Z,98185.77
2023-02-03T05:49:03.908Z,98193.95
2023-02-03T05:51:32.840Z,98196.56
2023-02-03T05:54:03.054Z,98199.41
2023-02-03T05:56:31.294Z,98202.45
2023-02-03T05:58:59.458Z,98210.92
2023-02-03T06:01:28.124Z,98211.52
2023-02-03T06:03:56.719Z,98211.27
2023-02-03T06:06:25.171Z,98218.10
2023-02-03T06:08:57.282Z,98220.22
2023-02-03T06:11:28.762Z,98219.25
2023-02-03T06:13:59.794Z,98222.90
2023-02-03T06:16:29.014Z,98230.16
2023-02-03T06:19:00.996Z,98234.54
2023-02-03T06:21:37.874Z,98239.85
2023-02-03T06:24:10.023Z,98244.29
2023-02-03T06:26:39.804Z,98249.96
2023-02-03T06:29:08.209Z,98249.14
2023-02-03T06:31:36.971Z,98255.97
2023-02-03T06:34:05.687Z,98265.71
2023-02-03T06:36:34.315Z,98268.02
2023-02-03T06:39:02.315Z,98271.95
2023-02-03T06:41:32.969Z,98271.55
2023-02-03T06:44:01.226Z,98275.36
2023-02-03T06:46:31.286Z,98276.30
2023-02-03T06:48:59.721Z,98281.15
2023-02-03T06:51:28.398Z,98278.60
2023-02-03T06:53:58.908Z,98279.02
2023-02-03T06:56:27.534Z,98279.38
2023-02-03T06:58:56.222Z,98284.41
2023-02-03T07:01:26.440Z,98290.11
2023-02-03T07:03:58.154Z,98289.90
2023-02-03T07:06:29.302Z,98296.43
2023-02-03T07:08:59.557Z,98296.92
2023-02-03T07:11:33.777Z,98299.41
2023-02-03T07:14:08.081Z,98299.79
2023-02-03T07:16:37.688Z,98303.57
2023-02-03T07:19:06.135Z,98302.82
2023-02-03T07:21:39.236Z,98299.72
2023-02-03T07:24:07.743Z,98299.23
2023-02-03T07:26:36.650Z,98300.27
2023-02-03T07:29:05.627Z,98300.21
2023-02-03T07:31:35.851Z,98302.52
2023-02-03T07:34:05.143Z,98297.40
2023-02-03T07:36:33.701Z,98297.34
2023-02-03T07:39:02.164Z,98296.41
2023-02-03T07:41:30.732Z,98299.88
2023-02-03T07:44:05.531Z,98301.64
2023-02-03T07:46:45.039Z,98302.17
2023-02-03T07:49:14.566Z,98305.80
2023-02-03T07:51:43.473Z,98307.52
2023-02-03T07:54:12.229Z,98307.14
2023-02-03T07:57:00.697Z,98308.52
2023-02-03T07:59:29.070Z,98308.30
2023-02-03T08:01:57.694Z,98313.46
2023-02-03T08:04:26.583Z,98314.13
2023-02-03T08:06:55.402Z,98317.65
2023-02-03T08:09:30.094Z,98317.16
2023-02-03T08:12:00.369Z,98320.08
2023-02-03T08:14:34.460Z,98323.11
2023-02-03T08:17:03.858Z,98317.64
2023-02-03T08:19:34.289Z,98320.69
2023-02-03T08:22:22.716Z,98323.76
2023-02-03T08:25:16.374Z,98328.17
2023-02-03T08:28:39.086Z,98333.62
2023-02-03T08:31:25.659Z,98333.90
2023-02-03T08:33:55.168Z,98335.00
2023-02-03T08:36:23.800Z,98338.44
2023-02-03T08:38:52.124Z,98342.48
2023-02-03T08:41:20.822Z,98338.48
2023-02-03T08:43:49.496Z,98337.83
2023-02-03T08:46:20.437Z,98338.45
2023-02-03T08:48:50.578Z,98336.59
2023-02-03T08:51:49.172Z,98337.84
2023-02-03T08:54:18.682Z,98340.59
2023-02-03T08:56:53.192Z,98339.11
2023-02-03T08:59:24.336Z,98338.73
2023-02-03T09:01:54.000Z,98337.70
2023-02-03T09:04:25.644Z,98334.05
2023-02-03T09:06:57.330Z,98336.18
2023-02-03T09:09:26.967Z,98335.58
2023-02-03T09:12:01.152Z,98332.77
2023-02-03T09:14:30.414Z,98329.08
2023-02-03T09:17:00.244Z,98326.86
2023-02-03T09:19:31.063Z,98323.81
2023-02-03T09:22:00.768Z,98326.69
2023-02-03T09:24:29.880Z,98325.04
2023-02-03T09:27:01.286Z,98327.27
2023-02-03T09:29:38.457Z,98329.79
2023-02-03T09:32:10.827Z,98329.86
2023-02-03T09:34:41.350Z,98329.23
2023-02-03T09:37:10.257Z,98334.54
2023-02-03T09:39:39.172Z,98329.98
2023-02-03T09:42:42.005Z,98330.07
2023-02-03T09:45:25.449Z,98326.13
2023-02-03T09:48:20.816Z,98324.33
2023-02-03T09:50:51.822Z,98324.84
2023-02-03T09:53:45.363Z,98325.19
2023-02-03T09:56:50.337Z,98321.24
2023-02-03T09:59:19.612Z,98323.02
2023-02-03T10:02:03.218Z,98320.34
2023-02-03T10:04:38.222Z,98325.05
2023-02-03T10:07:06.655Z,98326.98
2023-02-03T10:09:48.022Z,98326.23
2023-02-03T10:12:38.537Z,98327.05
2023-02-03T10:15:22.639Z,98324.80
2023-02-03T10:18:01.528Z,98320.27
2023-02-03T10:20:36.004Z,98320.31
2023-02-03T10:23:07.851Z,98317.02
2023-02-03T10:25:38.699Z,98318.89
2023-02-03T10:28:19.451Z,98319.95
2023-02-03T10:30:50.409Z,98317.79
2023-02-03T10:33:19.302Z,98316.88
2023-02-03T10:35:52.169Z,98310.13
2023-02-03T10:38:52.102Z,98309.61
2023-02-03T10:41:41.491Z,98305.20
2023-02-03T10:44:11.546Z,98297.51
2023-02-03T10:46:44.029Z,98294.82
2023-02-03T10:49:13.871Z,98291.14
2023-02-03T10:51:49.433Z,98287.79
2023-02-03T10:54:35.547Z,98288.52
2023-02-03T10:57:06.512Z,98283.91
2023-02-03T10:59:36.526Z,98280.73
2023-02-03T11:02:11.398Z,98282.95
2023-02-03T11:04:41.002Z,98278.61
2023-02-03T11:07:26.113Z,98277.80
2023-02-03T11:09:54.806Z,98277.64
2023-02-03T11:12:24.461Z,98269.92
2023-02-03T11:15:15.620Z,98262.77
2023-02-03T11:17:44.248Z,98266.55
2023-02-03T11:20:16.705Z,98269.92
2023-02-03T11:22:45.241Z,98264.00
2023-02-03T11:25:20.861Z,98266.64
2023-02-03T11:27:49.061Z,98262.76
2023-02-03T11:30:24.107Z,98259.96
2023-02-03T11:32:53.166Z,98265.55
2023-02-03T11:35:25.325Z,98257.70
2023-02-03T11:37:54.964Z,98261.88
2023-02-03T11:40:25.260Z,98262.64
2023-02-03T11:42:56.716Z,98269.31
2023-02-03T11:45:42.200Z,98269.11
2023-02-03T11:48:32.037Z,98269.89
2023-02-03T11:51:18.606Z,98269.30
2023-02-03T11:54:07.927Z,98265.86
2023-02-03T11:57:01.937Z,98266.75
2023-02-03T11:59:53.895Z,98267.88
2023-02-03T12:03:01.375Z,98268.25
2023-02-03T12:05:58.507Z,98273.08
2023-02-03T12:08:35.903Z,98267.81
2023-02-03T12:11:34.841Z,98270.88
2023-02-03T12:14:14.535Z,98268.65
2023-02-03T12:17:22.800Z,98271.06
2023-02-03T12:20:36.795Z,98270.77
2023-02-03T12:23:17.739Z,98271.55
2023-02-03T12:25:58.140Z,98272.60
2023-02-03T12:29:06.029Z,98274.64
2023-02-03T12:31:38.464Z,98273.88
2023-02-03T12:34:17.104Z,98269.13
2023-02-03T12:37:03.065Z,98267.48
2023-02-03T12:39:34.437Z,98271.79
2023-02-03T12:42:13.857Z,98266.35
2023-02-03T12:44:53.468Z,98265.16
2023-02-03T12:47:48.907Z,98265.85
2023-02-03T12:50:47.665Z,98267.40
2023-02-03T12:53:20.737Z,98271.34
2023-02-03T12:56:02.970Z,98272.23
2023-02-03T12:58:37.121Z,98276.56
2023-02-03T13:01:36.932Z,98275.55
2023-02-03T13:04:17.984Z,98276.88
2023-02-03T13:07:10.802Z,98283.45
2023-02-03T13:09:58.451Z,98283.10
2023-02-03T13:12:35.589Z,98282.38
2023-02-03T13:15:18.534Z,98283.98
2023-02-03T13:17:55.696Z,98283.70
2023-02-03T13:20:26.007Z,98289.21
2023-02-03T13:22:54.615Z,98282.84
2023-02-03T13:25:35.122Z,98286.48
2023-02-03T13:28:03.365Z,98285.02
2023-02-03T13:30:50.496Z,98288.90
2023-02-03T13:33:37.317Z,98285.25
2023-02-03T13:36:46.348Z,98288.66
2023-02-03T13:39:47.460Z,98286.26
2023-02-03T13:42:26.493Z,98281.40
2023-02-03T13:45:14.540Z,98278.20
2023-02-03T13:47:47.000Z,98271.91
2023-02-03T13:50:22.800Z,98271.71
2023-02-03T13:53:02.288Z,98266.16
2023-02-03T13:55:33.631Z,98264.11
2023-02-03T13:58:02.804Z,98262.48
2023-02-03T14:00:43.945Z,98258.92
2023-02-03T14:03:16.778Z,98256.72
2023-02-03T14:05:49.897Z,98254.13
2023-02-03T14:08:25.591Z,98252.14
2023-02-03T14:11:32.512Z,98245.34
2023-02-03T14:14:07.081Z,98245.02
2023-02-03T14:16:44.120Z,98247.20
2023-02-03T14:19:33.191Z,98247.22
2023-02-03T14:22:05.911Z,98247.62
2023-02-03T14:24:39.207Z,98244.08
2023-02-03T14:27:19.016Z,98242.38
2023-02-03T14:30:16.968Z,98238.23
2023-02-03T14:32:49.884Z,98233.76
2023-02-03T14:35:31.868Z,98218.89
2023-02-03T14:38:05.362Z,98216.16
2023-02-03T14:40:48.889Z,98221.63
2023-02-03T14:43:34.931Z,98228.96
2023-02-03T14:46:12.605Z,98226.29
2023-02-03T14:48:56.409Z,98224.17
2023-02-03T14:52:24.485Z,98215.66
2023-02-03T14:54:58.595Z,98213.27
2023-02-03T14:57:53.395Z,98209.41
2023-02-03T15:00:25.457Z,98206.91
2023-02-03T15:03:09.406Z,98204.59
2023-02-03T15:05:45.682Z,98201.42
2023-02-03T15:08:40.469Z,98196.84
2023-02-03T15:11:16.837Z,98192.59
2023-02-03T15:13:45.007Z,98190.48
2023-02-03T15:17:04.273Z,98188.58
2023-02-03T15:19:34.740Z,98180.44
2023-02-03T15:22:03.001Z,98178.95
2023-02-03T15:24:35.766Z,98173.20
2023-02-03T15:27:04.339Z,98174.78
2023-02-03T15:29:34.171Z,98176.30
2023-02-03T15:32:14.420Z,98173.08
2023-02-03T15:34:48.050Z,98170.33
2023-02-03T15:37:28.837Z,98171.45
2023-02-03T15:40:01.516Z,98172.84
2023-02-03T15:42:41.921Z,98174.63
2023-02-03T15:45:29.825Z,98174.92
2023-02-03T15:48:01.853Z,98171.56
2023-02-03T15:50:34.428Z,98174.08
2023-02-03T15:53:10.325Z,98171.95
2023-02-03T15:55:49.433Z,98174.40
2023-02-03T15:58:25.435Z,98174.62
2023-02-03T16:00:55.346Z,98174.09
2023-02-03T16:03:33.840Z,98173.83
2023-02-03T16:06:18.745Z,98170.20
2023-02-03T16:08:48.273Z,98170.73
2023-02-03T16:11:24.523Z,98164.42
2023-02-03T16:13:55.626Z,98160.84
2023-02-03T16:16:29.689Z,98154.66
2023-02-03T16:19:00.625Z,98155.01
2023-02-03T16:21:37.226Z,98154.21
2023-02-03T16:24:06.465Z,98150.36
2023-02-03T16:26:36.797Z,98151.66
2023-02-03T16:29:26.986Z,98146.64
2023-02-03T16:32:14.194Z,98148.62
2023-02-03T16:35:01.323Z,98149.09
2023-02-03T16:37:52.418Z,98150.04
2023-02-03T16:40:40.801Z,98145.71
2023-02-03T16:43:30.872Z,98144.42
2023-02-03T16:46:18.747Z,98141.65
2023-02-03T16:49:05.945Z,98137.79
2023-02-03T16:51:40.244Z,98136.77
2023-02-03T16:54:13.838Z,98137.33
2023-02-03T16:56:42.927Z,98127.41
2023-02-03T16:59:11.436Z,98124.09
2023-02-03T17:01:39.968Z,98124.17
2023-02-03T17:04:11.917Z,98123.63
2023-02-03T17:06:41.169Z,98126.16
2023-02-03T17:09:09.829Z,98120.93
2023-02-03T17:11:39.352Z,98119.73
2023-02-03T17:14:08.021Z,98121.17
2023-02-03T17:16:38.211Z,98118.56
2023-02-03T17:19:06.525Z,98114.04
2023-02-03T17:21:35.304Z,98111.24
2023-02-03T17:24:03.889Z,98117.17
2023-02-03T17:26:34.554Z,98115.58
2023-02-03T17:29:03.683Z,98118.22
2023-02-03T17:31:32.245Z,98113.86
2023-02-03T17:34:00.885Z,98111.70
2023-02-03T17:36:29.364Z,98105.88
2023-02-03T17:55:33.864Z,98084.12
2023-02-03T17:58:04.237Z,98081.54
2023-02-03T18:00:32.849Z,98079.45
2023-02-03T18:03:01.680Z,98074.17
2023-02-03T18:08:20.169Z,98079.50
2023-02-03T18:10:49.117Z,98078.85
2023-02-03T18:16:05.886Z,98078.42
2023-02-03T18:18:39.033Z,98081.00
2023-02-03T18:21:09.153Z,98085.37
2023-02-03T18:23:37.632Z,98083.11
2023-02-03T18:26:07.438Z,98077.33
2023-02-03T18:28:36.747Z,98076.42
2023-02-03T18:31:13.950Z,98073.86
2023-02-03T18:33:43.311Z,98069.84
2023-02-03T18:36:13.098Z,98068.33
2023-02-03T18:38:42.335Z,98065.83
2023-02-03T18:41:18.598Z,98063.23
2023-02-03T18:43:49.165Z,98063.35
2023-02-03T18:46:18.786Z,98058.43
2023-02-03T18:48:47.637Z,98057.72
2023-02-03T18:51:16.977Z,98052.67
2023-02-03T18:53:46.809Z,98047.45
2023-02-03T18:56:17.338Z,98047.13
2023-02-03T18:58:45.956Z,98048.11
2023-02-03T19:01:27.849Z,98050.12
2023-02-03T19:03:56.800Z,98046.89
2023-02-03T19:06:25.454Z,98043.55
2023-02-03T19:08:53.679Z,98043.83
2023-02-03T19:11:22.588Z,98043.25
2023-02-03T19:13:51.712Z,98045.02
2023-02-03T19:16:19.971Z,98039.88
2023-02-03T19:18:48.771Z,98037.95
2023-02-03T19:21:17.531Z,98042.56
2023-02-03T19:26:31.799Z,98033.31
2023-02-03T19:29:00.203Z,98032.39
2023-02-03T19:31:28.440Z,98028.92
2023-02-03T19:33:59.067Z,98032.80
2023-02-03T19:36:28.302Z,98031.02
2023-02-03T19:38:56.875Z,98030.68
2023-02-03T19:41:28.025Z,98026.04
2023-02-03T19:43:56.382Z,98021.48
2023-02-03T19:46:25.757Z,98026.40
2023-02-03T19:48:54.490Z,98023.78
2023-02-03T19:51:24.413Z,98022.87
2023-02-03T19:53:53.741Z,98024.61
2023-02-03T19:56:22.189Z,98023.02
2023-02-03T19:58:52.276Z,98018.58
2023-02-03T20:01:27.188Z,98018.57
2023-02-03T20:04:18.210Z,98016.34
2023-02-03T20:07:07.346Z,98014.13
2023-02-03T20:09:48.181Z,98009.58
2023-02-03T20:12:25.861Z,98008.20
2023-02-03T20:15:05.717Z,98006.41
2023-02-03T20:17:43.090Z,98004.01
2023-02-03T20:20:12.107Z,98004.95
2023-02-03T20:22:43.345Z,98005.09
2023-02-03T20:25:12.054Z,97999.34
2023-02-03T20:27:40.663Z,97994.13
2023-02-03T20:30:10.125Z,97991.30
2023-02-03T20:32:38.416Z,97995.30
2023-02-03T20:35:07.497Z,97992.27
2023-02-03T20:37:36.487Z,97996.21
2023-02-03T20:40:11.878Z,97997.25
2023-02-03T20:42:40.414Z,97995.33
2023-02-03T20:45:26.955Z,97992.66
2023-02-03T20:47:55.803Z,97993.90
2023-02-03T20:50:31.582Z,97993.55
2023-02-03T20:53:12.791Z,98002.97
2023-02-03T20:55:41.429Z,98003.02
2023-02-03T20:58:15.618Z,98001.42
2023-02-03T21:00:45.955Z,98000.28
2023-02-03T21:03:33.489Z,97998.84
2023-02-03T21:06:02.092Z,97996.03
2023-02-03T21:08:36.389Z,97997.13
2023-02-03T21:11:19.185Z,97999.48
2023-02-03T21:13:48.137Z,98004.36
2023-02-03T21:16:36.732Z,98011.84
2023-02-03T21:19:08.371Z,98010.17
2023-02-03T21:21:40.413Z,98007.40
2023-02-03T21:24:28.258Z,98004.59
2023-02-03T21:26:57.027Z,98010.91
2023-02-03T21:29:26.828Z,98011.35
